Time;durP1;ratioP1;P1;durP2;ratioP2;P2;SDS_P1;SDS_P2;PMS_P1;PMS_P2;Temp;Humidity;BMP_temperature;BMP_pressure;BME280_temperature;BME280_humidity;BME280_pressure;Samples;Min_cycle;Max_cycle;Signal;HPM_P1;HPM_P2
2022/02/04 00:09:14;;;;;;;44.58;27.70;;;7.80;99.90;;;;;;5065660;28;20279;-81
2022/02/04 00:20:24;;;;;;;43.13;26.85;;;7.80;99.90;;;;;;5062875;28;20221;-79
2022/02/04 00:23:07;;;;;;;47.15;26.88;;;7.80;99.90;;;;;;5082951;28;20202;-78
2022/02/04 00:25:54;;;;;;;43.90;26.58;;;7.90;99.90;;;;;;5072865;28;20263;-80
2022/02/04 00:28:31;;;;;;;51.50;29.05;;;7.80;99.90;;;;;;5079103;28;20226;-80
2022/02/04 00:31:10;;;;;;;50.35;29.33;;;7.80;99.90;;;;;;5070274;28;20202;-79
2022/02/04 00:33:40;;;;;;;49.33;29.42;;;7.90;99.90;;;;;;5075916;28;20301;-80
2022/02/04 00:36:12;;;;;;;41.92;27.27;;;7.90;99.90;;;;;;5090488;28;20245;-81
2022/02/04 00:38:44;;;;;;;45.55;28.77;;;7.90;99.90;;;;;;5087458;28;20229;-79
2022/02/04 00:41:14;;;;;;;45.55;29.35;;;7.90;99.90;;;;;;5086823;28;20670;-79
2022/02/04 00:43:42;;;;;;;44.63;26.33;;;7.80;99.90;;;;;;5077692;28;20624;-79
2022/02/04 00:46:13;;;;;;;46.80;29.58;;;7.90;99.90;;;;;;5080775;28;20200;-80
2022/02/04 00:48:47;;;;;;;49.08;30.88;;;7.90;99.90;;;;;;5078754;28;20855;-79
2022/02/04 00:51:20;;;;;;;48.85;29.45;;;8.00;99.90;;;;;;5082883;28;20256;-80
2022/02/04 00:53:55;;;;;;;53.63;30.80;;;8.00;99.90;;;;;;5083681;28;20203;-78
2022/02/04 00:56:31;;;;;;;48.45;30.67;;;8.00;99.90;;;;;;5080236;28;20207;-80
2022/02/04 01:26:22;;;;;;;52.30;31.02;;;8.00;99.90;;;;;;5073749;28;20228;-80
2022/02/04 01:28:51;;;;;;;46.17;30.45;;;8.00;99.90;;;;;;5069332;28;20231;-78
2022/02/04 01:31:20;;;;;;;47.05;30.08;;;7.90;99.90;;;;;;5073609;28;20211;-82
2022/02/04 01:33:48;;;;;;;47.83;30.63;;;7.90;99.90;;;;;;5082746;28;20210;-80
2022/02/04 01:36:15;;;;;;;50.75;29.75;;;7.90;99.90;;;;;;5073280;28;20261;-79
2022/02/04 01:38:42;;;;;;;50.92;28.90;;;7.90;99.90;;;;;;5085160;28;20306;-79
2022/02/04 01:41:10;;;;;;;49.70;31.27;;;7.90;99.90;;;;;;5085517;28;20234;-80
2022/02/04 01:43:40;;;;;;;47.15;29.42;;;7.90;99.90;;;;;;5078035;28;20221;-79
2022/02/04 01:46:09;;;;;;;49.30;32.08;;;8.00;99.90;;;;;;5080159;28;20192;-79
2022/02/04 01:48:36;;;;;;;47.25;30.10;;;8.00;99.90;;;;;;5091114;28;20226;-80
2022/02/04 01:51:06;;;;;;;51.80;31.30;;;8.00;99.90;;;;;;5088325;28;20590;-79
2022/02/04 01:53:33;;;;;;;46.72;29.98;;;7.90;99.90;;;;;;5091893;28;20250;-79
2022/02/04 01:56:03;;;;;;;48.05;31.88;;;8.00;99.90;;;;;;5081564;28;20219;-79
2022/02/04 01:58:30;;;;;;;46.35;28.35;;;7.90;99.90;;;;;;5086006;28;20249;-79
2022/02/04 02:00:58;;;;;;;48.45;28.80;;;8.00;99.90;;;;;;5085520;28;20223;-79
2022/02/04 02:03:26;;;;;;;49.95;30.98;;;8.00;99.90;;;;;;5076446;28;20230;-80
2022/02/04 02:05:56;;;;;;;50.15;31.45;;;8.00;99.90;;;;;;5073542;28;20192;-78
2022/02/04 02:08:22;;;;;;;49.65;29.73;;;8.00;99.90;;;;;;5082573;28;20222;-81
2022/02/04 02:10:50;;;;;;;49.15;29.15;;;8.00;99.90;;;;;;5083563;28;20222;-78
2022/02/04 02:13:25;;;;;;;51.13;31.45;;;7.90;99.90;;;;;;5077861;28;20191;-80
2022/02/04 02:16:04;;;;;;;55.88;30.27;;;8.00;99.90;;;;;;5091654;28;20229;-78
2022/02/04 02:43:39;;;;;;;44.97;28.33;;;8.00;99.90;;;;;;5073288;28;20183;-78
2022/02/04 02:46:21;;;;;;;47.33;26.80;;;7.90;99.90;;;;;;5074619;28;20252;-79
2022/02/04 03:00:08;;;;;;;40.78;26.65;;;8.10;99.90;;;;;;5081475;28;20190;-81
2022/02/04 03:02:35;;;;;;;48.25;28.08;;;8.00;99.90;;;;;;5068868;28;20191;-80
2022/02/04 03:05:02;;;;;;;40.97;26.70;;;8.20;99.90;;;;;;5085013;28;20229;-79
2022/02/04 03:07:29;;;;;;;49.25;26.60;;;8.10;99.90;;;;;;5079263;28;20223;-80
2022/02/04 03:09:57;;;;;;;46.70;27.88;;;8.10;99.90;;;;;;5085017;28;20234;-80
2022/02/04 03:12:24;;;;;;;39.65;25.70;;;8.10;99.90;;;;;;5079560;28;20680;-79
2022/02/04 03:14:52;;;;;;;40.47;26.02;;;8.20;99.90;;;;;;5079508;28;20667;-80
2022/02/04 03:17:19;;;;;;;45.58;27.80;;;8.20;99.90;;;;;;5081246;28;20249;-80
2022/02/04 03:19:51;;;;;;;46.22;27.45;;;8.30;99.90;;;;;;5068974;28;20218;-79
2022/02/04 03:22:18;;;;;;;42.50;26.13;;;8.20;99.90;;;;;;5078832;28;20272;-80
2022/02/04 03:24:53;;;;;;;47.47;27.75;;;8.20;99.90;;;;;;5085225;28;20230;-80
2022/02/04 03:27:23;;;;;;;40.70;25.00;;;8.30;99.90;;;;;;5084524;28;20249;-79
2022/02/04 03:30:04;;;;;;;44.70;26.95;;;8.20;99.90;;;;;;5084625;28;20207;-80
2022/02/04 03:32:33;;;;;;;41.63;25.92;;;8.20;99.90;;;;;;5073145;28;20663;-79
2022/02/04 03:35:00;;;;;;;45.20;27.80;;;8.20;99.90;;;;;;5073599;28;20601;-79
2022/02/04 03:37:26;;;;;;;40.05;25.73;;;8.20;99.90;;;;;;5069882;28;20249;-80
2022/02/04 03:39:53;;;;;;;46.60;26.10;;;8.30;99.90;;;;;;5070652;28;20560;-80
2022/02/04 03:42:21;;;;;;;41.10;26.17;;;8.30;99.90;;;;;;5078672;28;20282;-79
2022/02/04 03:44:48;;;;;;;40.67;26.48;;;8.20;99.90;;;;;;5068604;28;20225;-78
2022/02/04 03:47:15;;;;;;;41.92;26.45;;;8.10;99.90;;;;;;5086971;28;20218;-79
2022/02/04 03:49:42;;;;;;;45.30;26.13;;;8.00;99.90;;;;;;5080860;28;20264;-79
2022/02/04 03:52:09;;;;;;;41.00;25.30;;;8.00;99.90;;;;;;5095036;28;20240;-78
2022/02/04 03:54:36;;;;;;;39.33;24.40;;;7.90;99.90;;;;;;5079483;28;20247;-77
2022/02/04 03:57:03;;;;;;;41.55;25.80;;;8.00;99.90;;;;;;5073499;28;20251;-79
2022/02/04 03:59:31;;;;;;;41.03;25.00;;;8.00;99.90;;;;;;5069585;28;20203;-79
2022/02/04 04:01:58;;;;;;;42.05;25.30;;;8.00;99.90;;;;;;5088183;28;20207;-77
2022/02/04 04:04:29;;;;;;;39.97;26.05;;;8.00;99.90;;;;;;5091133;28;20234;-79
2022/02/04 04:06:57;;;;;;;37.45;24.02;;;7.90;99.90;;;;;;5078555;28;20265;-77
2022/02/04 04:09:24;;;;;;;38.15;22.90;;;8.00;99.90;;;;;;5079280;28;20208;-80
2022/02/04 04:11:52;;;;;;;40.90;25.10;;;8.00;99.90;;;;;;5083798;28;20204;-80
2022/02/04 04:14:19;;;;;;;43.38;25.25;;;8.00;99.90;;;;;;5070769;28;20207;-80
2022/02/04 04:16:48;;;;;;;35.33;23.08;;;8.10;99.90;;;;;;5075527;28;20315;-80
2022/02/04 04:19:15;;;;;;;34.17;24.17;;;8.10;99.90;;;;;;5068477;28;20571;-78
2022/02/04 04:21:41;;;;;;;42.85;24.50;;;8.00;99.90;;;;;;5086866;28;20286;-79
2022/02/04 04:24:09;;;;;;;37.45;23.92;;;8.00;99.90;;;;;;5087108;28;20261;-78
2022/02/04 04:26:38;;;;;;;37.63;22.88;;;8.10;99.90;;;;;;5087842;28;20226;-80
2022/02/04 04:29:05;;;;;;;37.90;23.58;;;8.10;99.90;;;;;;5081869;28;20700;-79
2022/02/04 04:31:31;;;;;;;40.80;24.83;;;8.10;99.90;;;;;;5077941;28;20286;-80
2022/02/04 04:34:00;;;;;;;38.83;23.13;;;8.10;99.90;;;;;;5079464;28;20672;-78
2022/02/04 04:36:27;;;;;;;42.85;26.73;;;8.10;99.90;;;;;;5087508;28;20615;-79
2022/02/04 04:39:00;;;;;;;39.30;25.33;;;8.10;99.90;;;;;;5076947;28;20258;-80
2022/02/04 04:41:36;;;;;;;40.50;26.13;;;8.00;99.90;;;;;;5078153;28;20233;-78
2022/02/04 05:28:26;;;;;;;39.70;24.50;;;8.00;99.90;;;;;;5080815;28;20226;-78
2022/02/04 05:31:04;;;;;;;40.40;23.35;;;8.00;99.90;;;;;;5080682;28;20266;-77
2022/02/04 05:33:30;;;;;;;41.45;27.08;;;8.00;99.90;;;;;;5080511;28;20195;-78
2022/02/04 05:35:58;;;;;;;36.47;22.50;;;8.00;99.90;;;;;;5080492;28;20227;-78
2022/02/04 05:38:29;;;;;;;35.95;24.60;;;8.10;99.90;;;;;;5080748;28;20230;-78
2022/02/04 05:40:56;;;;;;;36.03;23.50;;;8.10;99.90;;;;;;5080637;28;20178;-78
2022/02/04 05:43:27;;;;;;;37.25;25.35;;;8.10;99.90;;;;;;5080553;28;20184;-78
2022/02/04 05:46:00;;;;;;;41.38;25.65;;;8.10;99.90;;;;;;5080494;28;20172;-77
2022/02/04 05:48:28;;;;;;;39.50;23.20;;;8.00;99.90;;;;;;5080361;28;20204;-78
2022/02/04 05:51:08;;;;;;;39.00;23.70;;;7.90;99.90;;;;;;5079862;28;20199;-76
2022/02/04 05:53:45;;;;;;;40.67;23.83;;;7.90;99.90;;;;;;5080137;28;20214;-77
2022/02/04 05:56:22;;;;;;;37.60;26.92;;;8.00;99.90;;;;;;5077444;28;20214;-79
2022/02/04 05:58:58;;;;;;;38.58;25.60;;;8.10;99.90;;;;;;5074395;28;20227;-80
2022/02/04 06:01:35;;;;;;;41.78;24.88;;;8.10;99.90;;;;;;5078231;28;20167;-80
2022/02/04 06:04:19;;;;;;;38.90;25.48;;;8.10;99.90;;;;;;5071671;28;20233;-79
2022/02/04 06:07:09;;;;;;;35.08;24.83;;;8.10;99.90;;;;;;5086769;28;20189;-79
2022/02/04 06:23:47;;;;;;;42.10;28.25;;;8.10;99.90;;;;;;5098315;28;20201;-79
2022/02/04 06:26:16;;;;;;;35.45;23.13;;;8.10;99.90;;;;;;5084791;28;20199;-78
2022/02/04 06:28:43;;;;;;;40.60;25.40;;;8.20;99.90;;;;;;5089735;28;20251;-79
2022/02/04 06:31:10;;;;;;;40.15;25.63;;;8.20;99.90;;;;;;5084658;28;20254;-79
2022/02/04 06:33:37;;;;;;;36.13;25.95;;;8.10;99.90;;;;;;5085832;28;20229;-78
2022/02/04 06:36:06;;;;;;;39.13;24.60;;;8.10;99.90;;;;;;5081205;28;20242;-78
2022/02/04 06:38:34;;;;;;;40.90;26.17;;;8.10;99.90;;;;;;5082227;28;20227;-77
2022/02/04 06:41:02;;;;;;;40.75;26.52;;;8.10;99.90;;;;;;5086286;28;20202;-79
2022/02/04 06:43:31;;;;;;;49.17;27.83;;;8.10;99.90;;;;;;5091372;28;20218;-81
2022/02/04 06:45:58;;;;;;;38.78;25.23;;;8.10;99.90;;;;;;5087612;28;20249;-80
2022/02/04 06:48:25;;;;;;;41.78;27.50;;;8.10;99.90;;;;;;5083988;28;20230;-80
2022/02/04 06:50:52;;;;;;;33.80;24.58;;;8.10;99.90;;;;;;5084159;28;20212;-79
2022/02/04 06:53:19;;;;;;;34.83;22.92;;;8.10;99.90;;;;;;5068936;28;20668;-80
2022/02/04 06:55:46;;;;;;;38.90;23.60;;;8.10;99.90;;;;;;5073950;28;20249;-81
2022/02/04 06:58:14;;;;;;;37.95;25.90;;;8.10;99.90;;;;;;5081655;28;20226;-82
2022/02/04 07:00:42;;;;;;;39.78;25.55;;;8.20;99.90;;;;;;5078675;28;20222;-81
2022/02/04 07:03:10;;;;;;;39.90;26.35;;;8.20;99.90;;;;;;5084535;28;20216;-80
2022/02/04 07:05:43;;;;;;;38.42;26.08;;;8.20;99.90;;;;;;5091174;28;20269;-79
2022/02/04 07:08:16;;;;;;;32.28;22.10;;;8.20;99.90;;;;;;5089918;28;20224;-78
2022/02/04 07:11:03;;;;;;;37.92;25.70;;;8.20;99.90;;;;;;5094693;28;20266;-78
2022/02/04 07:13:41;;;;;;;36.15;25.65;;;8.30;99.90;;;;;;5093740;28;20191;-76
2022/02/04 07:16:27;;;;;;;39.50;25.80;;;8.30;99.90;;;;;;5088360;28;20265;-81
2022/02/04 07:21:38;;;;;;;32.65;22.00;;;8.30;99.90;;;;;;5069642;28;20213;-84
2022/02/04 07:24:06;;;;;;;37.50;25.05;;;8.40;99.90;;;;;;5076944;28;20218;-77
2022/02/04 07:26:33;;;;;;;41.25;27.42;;;8.30;99.90;;;;;;5071884;28;20195;-80
2022/02/04 07:29:00;;;;;;;38.10;25.80;;;8.30;99.90;;;;;;5073913;28;20250;-81
2022/02/04 07:31:32;;;;;;;40.53;25.70;;;8.40;99.90;;;;;;5067832;28;20204;-80
2022/02/04 07:34:12;;;;;;;32.00;23.38;;;8.40;99.90;;;;;;5080992;28;20230;-81
2022/02/04 07:42:08;;;;;;;41.35;24.17;;;8.50;99.90;;;;;;5075275;28;20230;-83
2022/02/04 07:44:35;;;;;;;39.88;25.25;;;8.40;99.90;;;;;;5077862;28;20353;-84
2022/02/04 07:47:04;;;;;;;34.80;23.58;;;8.40;99.90;;;;;;5090279;28;20199;-82
2022/02/04 07:49:31;;;;;;;34.40;22.92;;;8.40;99.90;;;;;;5088879;28;20237;-83
2022/02/04 07:51:58;;;;;;;33.78;22.90;;;8.40;99.90;;;;;;5093512;28;20203;-84
2022/02/04 07:54:25;;;;;;;31.70;24.02;;;8.60;99.90;;;;;;5083065;28;20238;-80
2022/02/04 07:56:52;;;;;;;32.08;24.38;;;8.50;99.90;;;;;;5082699;28;20241;-78
2022/02/04 07:59:19;;;;;;;36.72;23.73;;;8.60;99.90;;;;;;5080350;28;20208;-78
2022/02/04 08:01:47;;;;;;;34.25;23.40;;;8.70;99.90;;;;;;5087651;28;20209;-80
2022/02/04 08:04:18;;;;;;;35.88;24.13;;;8.70;99.90;;;;;;5083964;28;20230;-78
2022/02/04 08:06:51;;;;;;;31.35;22.38;;;8.90;99.90;;;;;;5075369;28;20191;-80
2022/02/04 08:09:26;;;;;;;37.30;25.23;;;8.70;99.90;;;;;;5082525;28;20202;-80
2022/02/04 08:12:18;;;;;;;28.00;21.25;;;8.80;99.90;;;;;;5084886;28;20202;-79
2022/02/04 08:15:00;;;;;;;31.65;21.60;;;8.80;99.90;;;;;;5082094;28;20199;-80
2022/02/04 08:17:55;;;;;;;33.00;22.13;;;8.90;99.90;;;;;;5078252;28;20219;-80
2022/02/04 08:20:42;;;;;;;32.30;23.38;;;8.90;99.90;;;;;;5079947;28;20252;-80
2022/02/04 08:23:32;;;;;;;33.83;22.48;;;8.90;99.90;;;;;;5073192;28;20207;-79
2022/02/04 08:31:47;;;;;;;26.65;19.25;;;9.00;99.90;;;;;;5084214;28;20244;-80
2022/02/04 08:37:38;;;;;;;26.65;19.10;;;8.90;99.90;;;;;;5067741;28;20210;-82
2022/02/04 08:51:39;;;;;;;23.40;17.98;;;9.10;99.90;;;;;;5081266;28;20257;-79
2022/02/04 08:54:14;;;;;;;22.20;18.20;;;9.10;99.90;;;;;;5086863;28;20203;-77
2022/02/04 08:56:52;;;;;;;25.52;19.17;;;9.20;99.90;;;;;;5094295;28;20211;-78
2022/02/04 08:59:27;;;;;;;27.45;18.23;;;9.30;99.90;;;;;;5083749;28;20206;-78
2022/02/04 09:02:01;;;;;;;24.85;19.05;;;9.30;99.90;;;;;;5089156;28;20203;-75
2022/02/04 09:04:35;;;;;;;23.13;17.98;;;9.40;99.90;;;;;;5099347;28;20179;-76
2022/02/04 09:07:06;;;;;;;27.05;17.02;;;9.30;99.90;;;;;;5079359;28;20191;-77
2022/02/04 09:09:56;;;;;;;25.52;18.92;;;9.30;99.90;;;;;;5090512;28;20226;-76
2022/02/04 09:20:41;;;;;;;25.40;17.95;;;9.30;99.90;;;;;;5090164;28;20218;-78
2022/02/04 09:23:09;;;;;;;27.27;15.98;;;9.30;99.90;;;;;;5089507;28;20203;-78
2022/02/04 09:25:37;;;;;;;42.92;17.23;;;9.30;99.90;;;;;;5077688;28;20211;-77
2022/02/04 09:28:05;;;;;;;23.25;16.02;;;9.30;99.90;;;;;;5085735;28;20317;-76
2022/02/04 09:30:32;;;;;;;23.35;16.38;;;9.40;99.90;;;;;;5074515;28;20286;-78
2022/02/04 09:32:59;;;;;;;20.58;15.48;;;9.50;99.90;;;;;;5087590;28;20232;-79
2022/02/04 09:35:26;;;;;;;27.77;17.25;;;9.30;99.90;;;;;;5083727;28;20206;-79
2022/02/04 09:37:55;;;;;;;20.33;13.77;;;9.50;99.90;;;;;;5084041;28;20226;-80
2022/02/04 09:40:24;;;;;;;27.73;17.83;;;9.40;99.90;;;;;;5078018;28;20299;-79
2022/02/04 09:42:52;;;;;;;23.05;16.67;;;9.40;99.90;;;;;;5084433;28;20282;-78
2022/02/04 09:45:22;;;;;;;24.02;14.35;;;9.40;99.90;;;;;;5079638;28;20234;-79
2022/02/04 09:47:59;;;;;;;18.58;13.40;;;9.50;99.90;;;;;;5083883;28;20708;-79
2022/02/04 09:50:29;;;;;;;18.45;15.40;;;9.50;99.90;;;;;;5087067;28;20232;-79
2022/02/04 10:12:51;;;;;;;16.88;13.85;;;10.30;99.90;;;;;;5068313;28;20200;-79
2022/02/04 10:15:28;;;;;;;15.50;12.00;;;10.30;99.90;;;;;;5072713;28;20204;-79
2022/02/04 10:17:59;;;;;;;14.63;12.85;;;10.30;99.90;;;;;;5087372;28;20246;-77
2022/02/04 10:20:27;;;;;;;17.63;12.00;;;10.20;99.90;;;;;;5085223;28;20212;-77
2022/02/04 10:22:54;;;;;;;13.40;11.32;;;10.20;99.90;;;;;;5081786;28;20910;-77
2022/02/04 10:25:21;;;;;;;16.10;11.25;;;10.60;99.90;;;;;;5088985;28;20279;-79
2022/02/04 10:27:47;;;;;;;15.95;10.05;;;11.00;99.90;;;;;;5084159;28;20217;-76
2022/02/04 10:30:17;;;;;;;14.93;10.65;;;11.10;99.90;;;;;;5085507;28;20255;-77
2022/02/04 10:32:48;;;;;;;11.85;10.65;;;11.10;99.90;;;;;;5078108;28;20293;-81
2022/02/04 10:35:21;;;;;;;11.27;9.95;;;10.80;99.90;;;;;;5086659;28;20273;-78
2022/02/04 10:38:06;;;;;;;12.40;11.10;;;10.70;99.90;;;;;;5079313;28;20218;-78
2022/02/04 10:40:43;;;;;;;10.20;8.60;;;10.80;99.90;;;;;;5086530;28;20684;-78
2022/02/04 10:43:24;;;;;;;13.40;10.60;;;10.70;99.90;;;;;;5076661;28;20230;-78
2022/02/04 10:46:07;;;;;;;11.00;9.90;;;10.50;99.90;;;;;;5081312;28;20199;-81
2022/02/04 10:51:42;;;;;;;13.55;9.30;;;10.20;99.90;;;;;;5073763;28;20199;-82
2022/02/04 11:02:41;;;;;;;9.90;7.55;;;10.70;99.90;;;;;;5071668;28;20207;-82
2022/02/04 11:05:17;;;;;;;9.85;8.55;;;10.70;99.90;;;;;;5068077;28;20210;-77
2022/02/04 11:08:11;;;;;;;9.23;6.85;;;10.70;99.90;;;;;;5073419;28;20216;-81
2022/02/04 11:35:50;;;;;;;7.80;5.00;;;10.70;99.90;;;;;;5081037;28;20291;-81
2022/02/04 11:47:57;;;;;;;7.43;4.50;;;10.30;99.90;;;;;;5069936;28;20201;-77
2022/02/04 11:52:43;;;;;;;7.07;3.85;;;10.10;99.90;;;;;;5067850;28;20209;-79
2022/02/04 11:55:33;;;;;;;6.70;3.90;;;10.10;99.90;;;;;;5065835;28;20209;-79
2022/02/04 11:58:04;;;;;;;5.32;3.42;;;10.10;99.90;;;;;;5067129;28;20235;-79
2022/02/04 12:00:36;;;;;;;3.70;3.13;;;10.10;99.90;;;;;;5080521;28;20709;-76
2022/02/04 12:03:25;;;;;;;6.28;3.45;;;10.20;99.90;;;;;;5082827;28;20198;-79
2022/02/04 12:05:52;;;;;;;6.28;4.43;;;10.10;99.90;;;;;;5063245;28;20209;-81
2022/02/04 12:08:30;;;;;;;7.65;4.07;;;10.00;99.90;;;;;;5074685;28;20247;-79
2022/02/04 12:11:07;;;;;;;8.50;4.45;;;10.00;99.90;;;;;;5069607;28;20211;-78
2022/02/04 12:14:11;;;;;;;6.90;3.90;;;9.90;99.90;;;;;;5080333;28;20245;-80
2022/02/04 12:17:08;;;;;;;3.85;3.15;;;9.90;99.90;;;;;;5077365;28;20254;-78
2022/02/04 12:19:40;;;;;;;6.25;4.28;;;9.90;99.90;;;;;;5077225;28;20202;-81
2022/02/04 12:22:08;;;;;;;6.85;3.45;;;10.00;99.90;;;;;;5067559;28;20323;-81
2022/02/04 12:24:45;;;;;;;5.55;4.25;;;10.00;99.90;;;;;;5065570;28;20207;-81
2022/02/04 12:27:31;;;;;;;7.85;4.88;;;10.00;99.90;;;;;;5069305;28;20220;-81
2022/02/04 12:30:01;;;;;;;14.35;4.75;;;10.00;99.90;;;;;;5070087;28;20251;-80
2022/02/04 12:32:28;;;;;;;10.10;6.78;;;9.90;99.90;;;;;;5077984;28;20208;-79
2022/02/04 12:34:55;;;;;;;7.28;4.13;;;9.90;99.90;;;;;;5067156;28;20207;-81
2022/02/04 12:37:23;;;;;;;7.22;4.20;;;9.90;99.90;;;;;;5085539;28;20300;-80
2022/02/04 12:39:49;;;;;;;5.40;3.83;;;9.90;99.90;;;;;;5078245;28;20207;-79
2022/02/04 12:42:19;;;;;;;4.90;3.70;;;10.00;99.90;;;;;;5084439;28;20302;-79
2022/02/04 12:44:47;;;;;;;7.15;4.15;;;9.90;99.90;;;;;;5085413;28;20683;-79
2022/02/04 12:47:16;;;;;;;9.38;6.05;;;9.90;99.90;;;;;;5082779;28;20230;-81
2022/02/04 12:49:48;;;;;;;5.35;4.57;;;9.90;99.90;;;;;;5073322;28;20294;-81
2022/02/04 12:52:19;;;;;;;5.25;3.75;;;9.90;99.90;;;;;;5073566;28;20210;-80
2022/02/04 12:54:50;;;;;;;6.10;4.22;;;9.90;99.90;;;;;;5077796;28;20533;-79
2022/02/04 13:00:33;;;;;;;4.65;3.80;;;9.90;99.90;;;;;;5075835;28;20251;-80
2022/02/04 13:03:09;;;;;;;4.15;2.95;;;10.00;99.90;;;;;;5077249;28;20203;-79
2022/02/04 13:08:39;;;;;;;5.72;3.92;;;10.20;99.90;;;;;;5080337;28;20231;-79
2022/02/04 13:11:08;;;;;;;3.45;2.72;;;10.20;99.90;;;;;;5079949;28;20283;-80
2022/02/04 13:13:43;;;;;;;5.05;3.28;;;10.10;99.90;;;;;;5087956;28;20261;-81
2022/02/04 13:16:14;;;;;;;4.47;3.72;;;10.10;99.90;;;;;;5094288;28;20215;-79
2022/02/04 13:18:41;;;;;;;5.35;3.42;;;10.10;99.90;;;;;;5088063;28;20266;-79
2022/02/04 13:21:09;;;;;;;8.95;4.40;;;10.10;99.90;;;;;;5083937;28;20216;-80
2022/02/04 13:23:36;;;;;;;4.63;4.18;;;10.10;99.90;;;;;;5079984;28;20204;-79
2022/02/04 13:26:05;;;;;;;3.67;3.33;;;10.00;99.90;;;;;;5096060;28;20179;-79
2022/02/04 13:28:33;;;;;;;6.30;5.35;;;10.00;99.90;;;;;;5099334;28;20213;-78
2022/02/04 13:31:03;;;;;;;5.43;4.07;;;10.00;99.90;;;;;;5098592;28;20223;-79
2022/02/04 13:33:34;;;;;;;6.45;3.22;;;10.10;99.90;;;;;;5091103;28;20215;-79
2022/02/04 13:36:15;;;;;;;5.95;4.30;;;10.00;99.90;;;;;;5096192;28;20234;-83
2022/02/04 13:38:53;;;;;;;3.50;2.90;;;10.10;99.90;;;;;;5084313;28;20232;-79
2022/02/04 13:41:30;;;;;;;8.90;3.72;;;10.10;99.90;;;;;;5087352;28;20253;-80
2022/02/04 13:44:25;;;;;;;3.80;3.38;;;10.20;99.90;;;;;;5086922;28;20274;-79
2022/02/04 13:46:58;;;;;;;9.30;4.15;;;10.00;99.90;;;;;;5095806;28;20183;-78
2022/02/04 13:49:45;;;;;;;4.97;3.70;;;10.00;99.90;;;;;;5098042;28;20191;-77
2022/02/04 13:52:17;;;;;;;7.68;3.10;;;10.10;99.90;;;;;;5079173;28;20190;-79
2022/02/04 13:54:59;;;;;;;2.95;2.70;;;10.10;99.90;;;;;;5080833;28;20197;-78
2022/02/04 13:57:42;;;;;;;3.75;2.47;;;10.00;99.90;;;;;;5088182;28;20219;-78
2022/02/04 14:00:27;;;;;;;7.05;4.05;;;9.90;99.90;;;;;;5079202;28;20173;-77
2022/02/04 14:03:08;;;;;;;3.25;2.95;;;10.00;99.90;;;;;;5079224;28;20172;-79
2022/02/04 14:05:43;;;;;;;2.67;2.47;;;9.90;99.90;;;;;;5078941;28;20201;-76
2022/02/04 14:08:15;;;;;;;3.35;3.10;;;9.80;99.90;;;;;;5078956;28;20282;-75
2022/02/04 14:10:50;;;;;;;3.17;2.70;;;9.80;99.90;;;;;;5078487;28;20215;-77
2022/02/04 14:13:22;;;;;;;4.32;3.90;;;9.90;99.90;;;;;;5078995;28;20176;-78
2022/02/04 14:15:52;;;;;;;3.20;2.70;;;9.80;99.90;;;;;;5078797;28;20179;-78
2022/02/04 14:18:19;;;;;;;3.10;2.60;;;9.80;99.90;;;;;;5078776;28;20239;-78
2022/02/04 14:20:47;;;;;;;3.47;2.92;;;9.80;99.90;;;;;;5087647;28;20203;-81
2022/02/04 14:23:14;;;;;;;3.03;2.30;;;9.80;99.90;;;;;;5083655;28;20193;-80
2022/02/04 14:25:48;;;;;;;2.50;2.30;;;9.70;99.90;;;;;;5085238;28;20199;-82
2022/02/04 14:28:20;;;;;;;5.82;3.05;;;9.70;99.90;;;;;;5085892;28;20215;-79
2022/02/04 14:30:51;;;;;;;3.47;2.92;;;9.70;99.90;;;;;;5083949;28;20242;-78
2022/02/04 14:33:53;;;;;;;2.35;2.15;;;9.70;99.90;;;;;;5083490;28;20204;-79
2022/02/04 14:36:15;;;;;;;3.85;3.10;;;9.70;99.90;;;;;;5087210;28;20186;-80
2022/02/04 14:52:38;;;;;;;3.58;2.63;;;9.70;99.90;;;;;;5053385;28;20191;-80
2022/02/04 15:03:19;;;;;;;3.40;2.88;;;9.70;99.90;;;;;;5081809;28;20751;-82
2022/02/04 15:05:59;;;;;;;5.30;2.80;;;9.70;99.90;;;;;;5078565;28;20207;-80
2022/02/04 15:08:28;;;;;;;2.65;2.45;;;9.70;99.90;;;;;;5076099;28;20214;-80
2022/02/04 15:10:59;;;;;;;3.85;3.00;;;9.70;99.90;;;;;;5079888;28;20659;-80
2022/02/04 15:13:26;;;;;;;3.15;2.40;;;9.60;99.90;;;;;;5069835;28;20207;-79
2022/02/04 15:15:53;;;;;;;4.35;2.63;;;9.60;99.90;;;;;;5079985;28;20266;-83
2022/02/04 15:18:19;;;;;;;3.78;2.70;;;9.60;99.90;;;;;;5075683;28;20294;-83
2022/02/04 15:20:46;;;;;;;3.15;2.85;;;9.70;99.90;;;;;;5071036;28;20294;-81
2022/02/04 15:23:15;;;;;;;3.85;2.63;;;9.60;99.90;;;;;;5076193;28;20222;-80
2022/02/04 15:25:45;;;;;;;5.10;3.03;;;9.60;99.90;;;;;;5075644;28;20204;-81
2022/02/04 15:28:30;;;;;;;2.40;2.20;;;9.60;99.90;;;;;;5086192;28;20282;-82
2022/02/04 15:30:57;;;;;;;5.47;2.53;;;9.60;99.90;;;;;;5074132;28;20199;-80
2022/02/04 15:33:28;;;;;;;3.78;3.08;;;9.50;99.90;;;;;;5072265;28;20271;-83
2022/02/04 15:35:57;;;;;;;3.40;2.97;;;9.40;99.90;;;;;;5078163;28;20245;-84
2022/02/04 15:38:25;;;;;;;2.83;2.60;;;9.40;99.90;;;;;;5075706;28;20231;-82
2022/02/04 15:40:53;;;;;;;2.70;2.38;;;9.30;99.90;;;;;;5077555;28;20266;-81
2022/02/04 15:43:20;;;;;;;2.65;2.28;;;9.40;99.90;;;;;;5077414;28;20725;-81
2022/02/04 15:46:23;;;;;;;3.60;2.78;;;9.30;99.90;;;;;;5071976;28;20360;-79
2022/02/04 15:54:40;;;;;;;2.63;2.17;;;9.10;99.90;;;;;;5049625;28;20222;-80
2022/02/04 15:57:29;;;;;;;4.60;3.40;;;9.20;99.90;;;;;;5076026;28;20287;-80
2022/02/04 16:02:50;;;;;;;3.40;2.80;;;9.00;99.90;;;;;;5067331;28;20212;-78
2022/02/04 16:05:16;;;;;;;3.42;2.85;;;9.00;99.90;;;;;;5078884;28;20211;-79
2022/02/04 16:07:43;;;;;;;3.10;2.67;;;8.90;99.90;;;;;;5075441;28;20247;-79
2022/02/04 16:10:25;;;;;;;6.65;3.42;;;8.80;99.90;;;;;;5077541;28;20219;-78
2022/02/04 16:12:58;;;;;;;6.20;3.85;;;8.90;99.90;;;;;;5085048;28;20263;-79
2022/02/04 16:15:36;;;;;;;5.35;3.50;;;8.80;99.90;;;;;;5081890;28;20194;-79
2022/02/04 16:18:10;;;;;;;4.32;3.80;;;8.80;99.90;;;;;;5083305;28;20226;-79
2022/02/04 16:23:27;;;;;;;5.15;4.65;;;8.60;99.90;;;;;;5070829;28;20211;-81
2022/02/04 16:26:01;;;;;;;5.80;3.95;;;8.50;99.90;;;;;;5077658;28;20220;-82
2022/02/04 16:28:38;;;;;;;4.90;3.53;;;8.50;99.90;;;;;;5076767;28;20230;-83
2022/02/04 16:31:06;;;;;;;6.18;5.10;;;8.50;99.90;;;;;;5080953;28;20280;-84
2022/02/04 16:33:33;;;;;;;10.70;5.38;;;8.50;99.90;;;;;;5083111;28;20260;-82
2022/02/04 16:36:03;;;;;;;5.82;5.22;;;8.50;99.90;;;;;;5080086;28;20223;-82
2022/02/04 16:38:32;;;;;;;8.15;5.80;;;8.50;99.90;;;;;;5079659;28;20235;-81
2022/02/04 16:41:04;;;;;;;5.90;3.00;;;8.40;99.90;;;;;;5083023;28;20211;-78
2022/02/04 16:43:35;;;;;;;3.72;2.75;;;8.20;99.90;;;;;;5089296;28;20222;-79
2022/02/04 16:46:03;;;;;;;13.77;7.00;;;7.80;99.90;;;;;;5085632;28;20232;-81
2022/02/04 16:48:30;;;;;;;8.25;5.13;;;7.60;99.90;;;;;;5085624;28;20219;-82
2022/02/04 16:50:58;;;;;;;8.13;4.10;;;7.40;99.90;;;;;;5086926;28;20206;-77
2022/02/04 16:53:27;;;;;;;2.65;1.83;;;7.20;99.90;;;;;;5078123;28;20202;-81
2022/02/04 16:55:54;;;;;;;3.38;2.13;;;7.00;99.90;;;;;;5081732;28;20236;-81
2022/02/04 16:58:21;;;;;;;2.72;1.88;;;6.60;99.90;;;;;;5080601;28;20233;-76
2022/02/04 17:00:49;;;;;;;1.73;1.10;;;6.40;99.90;;;;;;5071135;28;20271;-78
2022/02/04 17:03:16;;;;;;;2.25;1.00;;;6.10;99.90;;;;;;5076034;28;20200;-80
2022/02/04 17:05:51;;;;;;;3.15;1.60;;;6.00;99.90;;;;;;5083526;28;20199;-80
2022/02/04 17:08:32;;;;;;;3.25;1.67;;;5.90;99.90;;;;;;5086197;28;20276;-82
2022/02/04 17:11:01;;;;;;;2.70;1.42;;;5.90;99.90;;;;;;5067609;28;20213;-83
2022/02/04 17:13:28;;;;;;;3.80;1.85;;;5.80;99.90;;;;;;5084582;28;20206;-77
2022/02/04 17:15:57;;;;;;;3.95;2.10;;;5.70;99.90;;;;;;5082520;28;20628;-79
2022/02/04 17:18:24;;;;;;;5.78;2.00;;;5.60;99.90;;;;;;5076570;28;20219;-79
2022/02/04 17:20:52;;;;;;;8.15;2.55;;;5.50;99.90;;;;;;5082810;28;20207;-79
2022/02/04 17:23:27;;;;;;;4.88;2.60;;;5.40;99.90;;;;;;5085837;28;20195;-81
2022/02/04 17:25:57;;;;;;;5.68;3.40;;;5.40;99.90;;;;;;5067600;28;20237;-79
2022/02/04 17:28:28;;;;;;;4.70;2.85;;;5.40;99.90;;;;;;5083446;28;20632;-78
2022/02/04 17:30:57;;;;;;;5.63;3.03;;;5.40;99.90;;;;;;5077268;28;20206;-79
2022/02/04 17:33:25;;;;;;;2.67;2.00;;;5.40;99.90;;;;;;5082640;28;20206;-79
2022/02/04 17:35:53;;;;;;;2.53;1.10;;;5.30;99.90;;;;;;5082848;28;20199;-79
2022/02/04 17:38:20;;;;;;;5.57;1.60;;;5.30;99.90;;;;;;5083528;28;20259;-80
2022/02/04 17:40:47;;;;;;;1.05;0.95;;;5.10;99.90;;;;;;5078892;28;20600;-79
2022/02/04 17:43:15;;;;;;;1.80;1.50;;;5.10;99.90;;;;;;5073806;28;20230;-80
2022/02/04 17:45:42;;;;;;;3.72;3.35;;;5.10;99.90;;;;;;5072925;28;20214;-79
2022/02/04 17:48:20;;;;;;;1.83;1.40;;;5.10;99.90;;;;;;5078494;28;20222;-79
2022/02/04 17:50:52;;;;;;;3.63;2.53;;;4.90;99.90;;;;;;5080483;28;20199;-77